createdAt,value
2022-12-24T00:00:50.732Z,2.0
2022-12-24T00:02:50.144Z,2.1
2022-12-24T00:04:58.772Z,2.1
2022-12-24T00:06:50.430Z,2.2
2022-12-24T00:08:50.042Z,2.0
2022-12-24T00:10:50.645Z,2.1
2022-12-24T00:12:50.269Z,2.3
2022-12-24T00:14:50.100Z,2.3
2022-12-24T00:16:50.290Z,2.1
2022-12-24T00:18:50.309Z,2.0
2022-12-24T00:20:49.931Z,2.0
2022-12-24T00:22:50.534Z,2.5
2022-12-24T00:24:50.133Z,2.5
2022-12-24T00:26:50.180Z,2.5
2022-12-24T00:28:49.978Z,2.1
2022-12-24T00:30:50.018Z,2.1
2022-12-24T00:32:50.030Z,2.4
2022-12-24T00:34:50.238Z,2.4
2022-12-24T00:36:50.448Z,2.4
2022-12-24T00:38:50.079Z,2.3
2022-12-24T00:40:50.691Z,2.2
2022-12-24T00:42:50.296Z,2.2
2022-12-24T00:44:49.924Z,2.4
2022-12-24T00:46:50.113Z,2.4
2022-12-24T00:48:49.711Z,2.0
2022-12-24T00:50:50.491Z,2.2
2022-12-24T00:52:50.359Z,2.2
2022-12-24T00:54:50.195Z,2.2
2022-12-24T00:56:50.215Z,2.4
2022-12-24T00:58:49.849Z,2.5
2022-12-24T01:00:50.599Z,2.5
2022-12-24T01:02:50.723Z,2.5
2022-12-24T01:04:49.887Z,2.1
2022-12-24T01:06:49.857Z,2.3
2022-12-24T01:08:50.459Z,2.0
2022-12-24T01:10:50.104Z,2.5
2022-12-24T01:12:49.702Z,2.5
2022-12-24T01:14:50.353Z,2.5
2022-12-24T01:16:50.562Z,2.2
2022-12-24T01:18:50.311Z,2.2
2022-12-24T01:20:49.963Z,3.0
2022-12-24T01:22:50.564Z,3.0
2022-12-24T01:24:50.608Z,2.4
2022-12-24T01:26:50.602Z,2.3
2022-12-24T01:28:50.239Z,2.3
2022-12-24T01:30:50.057Z,2.8
2022-12-24T01:32:50.054Z,2.7
2022-12-24T01:34:49.915Z,2.7
2022-12-24T01:36:50.065Z,2.7
2022-12-24T01:38:49.912Z,2.2
2022-12-24T01:40:49.739Z,2.4
2022-12-24T01:42:49.711Z,2.4
2022-12-24T01:44:50.532Z,2.4
2022-12-24T01:46:50.825Z,3.1
2022-12-24T01:48:50.609Z,2.6
2022-12-24T01:50:50.159Z,2.6
2022-12-24T01:52:49.805Z,2.6
2022-12-24T01:54:50.584Z,2.5
2022-12-24T01:56:50.789Z,2.7
2022-12-24T01:58:49.861Z,2.7
2022-12-24T02:00:50.657Z,2.7
2022-12-24T02:02:50.700Z,2.9
2022-12-24T02:04:50.500Z,2.3
2022-12-24T02:06:50.501Z,2.7
2022-12-24T02:08:50.085Z,2.7
2022-12-24T02:10:49.727Z,2.6
2022-12-24T02:12:50.328Z,2.4
2022-12-24T02:14:49.982Z,3.2
2022-12-24T02:16:50.020Z,2.6
2022-12-24T02:18:50.566Z,2.6
2022-12-24T02:20:50.396Z,2.6
2022-12-24T02:22:50.030Z,2.5
2022-12-24T02:24:49.829Z,2.4
2022-12-24T02:26:50.015Z,2.6
2022-12-24T02:28:50.639Z,2.6
2022-12-24T02:30:50.367Z,2.6
2022-12-24T02:32:50.026Z,2.5
2022-12-24T02:34:49.952Z,2.8
2022-12-24T02:36:49.883Z,2.6
2022-12-24T02:38:50.511Z,2.8
2022-12-24T02:40:50.163Z,2.8
2022-12-24T02:42:49.912Z,2.5
2022-12-24T02:44:50.536Z,2.9
2022-12-24T02:46:50.913Z,2.9
2022-12-24T02:48:49.920Z,2.4
2022-12-24T02:50:50.611Z,2.9
2022-12-24T02:52:50.245Z,3.1
2022-12-24T02:54:49.825Z,3.2
2022-12-24T02:56:49.843Z,2.7
2022-12-24T02:58:50.450Z,2.7
2022-12-24T03:00:50.170Z,2.5
2022-12-24T03:02:50.419Z,3.0
2022-12-24T03:04:49.761Z,2.8
2022-12-24T03:06:49.709Z,2.6
2022-12-24T03:08:49.745Z,2.6
2022-12-24T03:10:50.352Z,3.1
2022-12-24T03:12:49.958Z,3.1
2022-12-24T03:14:50.570Z,3.0
2022-12-24T03:16:49.914Z,3.0
2022-12-24T03:18:50.021Z,3.3
2022-12-24T03:20:50.601Z,2.6
2022-12-24T03:22:50.433Z,3.1
2022-12-24T03:24:50.021Z,3.0
2022-12-24T03:26:49.850Z,3.0
2022-12-24T03:28:50.478Z,2.8
2022-12-24T03:30:50.123Z,2.7
2022-12-24T03:32:50.664Z,3.0
2022-12-24T03:34:49.960Z,2.9
2022-12-24T03:36:50.136Z,2.9
2022-12-24T03:38:49.974Z,3.1
2022-12-24T03:40:50.641Z,2.6
2022-12-24T03:42:50.397Z,2.6
2022-12-24T03:44:49.995Z,3.1
2022-12-24T03:46:49.816Z,3.1
2022-12-24T03:48:50.410Z,2.5
2022-12-24T03:50:50.057Z,2.9
2022-12-24T03:52:50.560Z,2.9
2022-12-24T03:54:50.280Z,3.2
2022-12-24T03:56:50.300Z,3.2
2022-12-24T03:58:50.123Z,3.1
2022-12-24T04:00:49.820Z,3.0
2022-12-24T04:02:49.915Z,3.0
2022-12-24T04:04:49.791Z,3.0
2022-12-24T04:06:49.731Z,2.8
2022-12-24T04:08:50.398Z,2.8
2022-12-24T04:10:49.996Z,2.9
2022-12-24T04:12:49.842Z,2.9
2022-12-24T04:14:50.498Z,2.7
2022-12-24T04:16:50.780Z,2.7
2022-12-24T04:18:49.837Z,3.3
2022-12-24T04:20:50.452Z,3.1
2022-12-24T04:22:50.055Z,2.8
2022-12-24T04:24:50.732Z,3.3
2022-12-24T04:26:49.689Z,3.3
2022-12-24T04:28:50.293Z,2.8
2022-12-24T04:30:49.905Z,3.1
2022-12-24T04:32:50.327Z,3.0
2022-12-24T04:34:50.384Z,3.0
2022-12-24T04:36:50.203Z,2.8
2022-12-24T04:38:49.980Z,2.9
2022-12-24T04:40:49.822Z,2.9
2022-12-24T04:42:50.381Z,3.0
2022-12-24T04:44:50.054Z,3.0
2022-12-24T04:46:50.078Z,2.7
2022-12-24T04:48:49.865Z,2.7
2022-12-24T04:50:50.328Z,2.6
2022-12-24T04:52:49.919Z,2.7
2022-12-24T04:54:49.728Z,2.7
2022-12-24T04:56:49.712Z,2.8
2022-12-24T04:58:50.377Z,2.7
2022-12-24T05:00:50.376Z,2.9
2022-12-24T05:02:50.489Z,2.9
2022-12-24T05:04:50.401Z,3.0
2022-12-24T05:06:50.394Z,3.0
2022-12-24T05:08:50.264Z,3.1
2022-12-24T05:10:50.026Z,2.7
2022-12-24T05:12:49.845Z,2.7
2022-12-24T05:14:50.439Z,2.7
2022-12-24T05:16:50.573Z,2.7
2022-12-24T05:18:50.683Z,2.5
2022-12-24T05:20:50.492Z,2.5
2022-12-24T05:22:50.341Z,2.9
2022-12-24T05:24:49.936Z,2.5
2022-12-24T05:26:49.983Z,2.4
2022-12-24T05:28:50.569Z,2.4
2022-12-24T05:30:50.122Z,2.3
2022-12-24T05:32:50.028Z,2.3
2022-12-24T05:34:50.222Z,2.3
2022-12-24T05:36:50.478Z,2.9
2022-12-24T05:38:50.263Z,2.8
2022-12-24T05:40:50.098Z,2.8
2022-12-24T05:42:49.858Z,2.9
2022-12-24T05:44:50.678Z,2.6
2022-12-24T05:46:50.472Z,2.5
2022-12-24T05:48:50.099Z,2.5
2022-12-24T05:50:49.768Z,2.9
2022-12-24T05:52:50.523Z,2.8
2022-12-24T05:54:50.112Z,2.3
2022-12-24T05:56:50.179Z,2.4
2022-12-24T05:58:49.982Z,2.9
2022-12-24T06:00:49.812Z,2.8
2022-12-24T06:02:50.725Z,2.8
2022-12-24T06:04:50.126Z,2.6
2022-12-24T06:06:50.240Z,2.6
2022-12-24T06:08:49.874Z,2.6
2022-12-24T06:10:50.669Z,2.6
2022-12-24T06:12:50.453Z,2.7
2022-12-24T06:14:50.093Z,2.7
2022-12-24T06:16:50.130Z,2.6
2022-12-24T06:18:49.709Z,2.6
2022-12-24T06:20:50.332Z,2.6
2022-12-24T06:22:50.167Z,2.8
2022-12-24T06:24:49.755Z,2.9
2022-12-24T06:26:49.776Z,2.4
2022-12-24T06:28:50.609Z,2.4
2022-12-24T06:30:50.416Z,2.5
2022-12-24T06:32:50.215Z,2.9
2022-12-24T06:34:50.436Z,2.7
2022-12-24T06:36:49.774Z,3.1
2022-12-24T06:38:50.420Z,2.7
2022-12-24T06:40:50.079Z,2.7
2022-12-24T06:42:50.699Z,2.7
2022-12-24T06:44:50.295Z,3.3
2022-12-24T06:46:50.255Z,2.6
2022-12-24T06:48:50.366Z,2.6
2022-12-24T06:50:49.938Z,3.0
2022-12-24T06:52:50.560Z,3.1
2022-12-24T06:54:50.181Z,3.1
2022-12-24T06:56:50.294Z,2.7
2022-12-24T06:58:49.927Z,2.7
2022-12-24T07:00:50.502Z,2.7
2022-12-24T07:02:50.322Z,3.1
2022-12-24T07:04:49.998Z,3.1
2022-12-24T07:06:50.207Z,2.9
2022-12-24T07:08:49.795Z,2.9
2022-12-24T07:10:54.789Z,2.7
2022-12-24T07:12:50.612Z,3.0
2022-12-24T07:14:50.297Z,3.0
2022-12-24T07:16:59.231Z,2.8
2022-12-24T07:18:50.546Z,2.8
2022-12-24T07:20:50.309Z,2.8
2022-12-24T07:22:50.112Z,3.2
2022-12-24T07:24:49.723Z,3.4
2022-12-24T07:26:49.972Z,2.9
2022-12-24T07:28:49.722Z,2.9
2022-12-24T07:30:50.539Z,2.9
2022-12-24T07:32:50.158Z,3.4
2022-12-24T07:34:50.187Z,3.1
2022-12-24T07:36:50.401Z,3.1
2022-12-24T07:38:50.217Z,3.4
2022-12-24T07:40:49.807Z,3.5
2022-12-24T07:42:50.303Z,3.4
2022-12-24T07:44:50.052Z,3.4
2022-12-24T07:46:50.190Z,4.8
2022-12-24T07:48:50.079Z,4.2
2022-12-24T07:50:50.680Z,3.1
2022-12-24T07:52:50.487Z,3.4
2022-12-24T07:54:50.157Z,3.5
2022-12-24T07:56:50.146Z,3.5
2022-12-24T07:58:49.928Z,4.1
2022-12-24T08:00:49.787Z,3.7
2022-12-24T08:02:50.954Z,3.7
2022-12-24T08:04:50.198Z,3.7
2022-12-24T08:06:50.213Z,3.6
2022-12-24T08:08:49.902Z,3.5
2022-12-24T08:10:50.711Z,3.6
2022-12-24T08:12:50.340Z,3.3
2022-12-24T08:14:50.077Z,3.3
2022-12-24T08:16:50.253Z,3.8
2022-12-24T08:18:50.291Z,3.9
2022-12-24T08:20:49.909Z,3.7
2022-12-24T08:22:50.474Z,3.7
2022-12-24T08:24:50.153Z,3.7
2022-12-24T08:26:50.203Z,3.5
2022-12-24T08:28:49.767Z,3.5
2022-12-24T08:30:50.568Z,4.0
2022-12-24T08:32:50.179Z,3.8
2022-12-24T08:34:50.446Z,3.8
2022-12-24T08:36:50.447Z,3.7
2022-12-24T08:38:50.257Z,3.6
2022-12-24T08:40:50.456Z,4.1
2022-12-24T08:42:50.437Z,3.9
2022-12-24T08:44:50.663Z,3.9
2022-12-24T08:46:50.477Z,4.2
2022-12-24T08:48:50.112Z,3.5
2022-12-24T08:50:49.711Z,4.3
2022-12-24T08:52:50.333Z,4.3
2022-12-24T08:54:50.180Z,4.1
2022-12-24T08:56:50.180Z,3.7
2022-12-24T08:58:49.766Z,4.2
2022-12-24T09:00:50.527Z,3.9
2022-12-24T09:02:50.581Z,3.9
2022-12-24T09:04:50.243Z,3.4
2022-12-24T09:06:50.236Z,3.6
2022-12-24T09:08:49.864Z,4.1
2022-12-24T09:10:50.670Z,4.0
2022-12-24T09:12:50.313Z,4.0
2022-12-24T09:14:50.127Z,3.5
2022-12-24T09:16:50.218Z,5.1
2022-12-24T09:18:50.138Z,4.1
2022-12-24T09:20:57.361Z,4.4
2022-12-24T09:22:50.367Z,4.4
2022-12-24T09:24:49.992Z,4.0
2022-12-24T09:26:58.034Z,3.7
2022-12-24T09:28:50.003Z,4.0
2022-12-24T09:30:50.580Z,4.0
2022-12-24T09:32:50.204Z,4.0
2022-12-24T09:34:50.298Z,4.2
2022-12-24T09:36:50.049Z,3.9
2022-12-24T09:38:49.853Z,4.2
2022-12-24T09:40:50.731Z,4.1
2022-12-24T09:42:50.483Z,4.1
2022-12-24T09:44:50.118Z,4.3
2022-12-24T09:46:49.933Z,3.7
2022-12-24T09:48:50.508Z,4.1
2022-12-24T09:50:50.202Z,4.0
2022-12-24T09:52:49.967Z,4.0
2022-12-24T09:54:50.425Z,4.2
2022-12-24T09:56:50.449Z,3.8
2022-12-24T09:58:50.227Z,3.8
2022-12-24T10:00:50.653Z,3.8
2022-12-24T10:02:50.643Z,3.8
2022-12-24T10:04:50.497Z,4.3
2022-12-24T10:06:49.711Z,4.2
2022-12-24T10:08:50.513Z,4.0
2022-12-24T10:10:50.327Z,3.8
2022-12-24T10:12:50.388Z,3.8
2022-12-24T10:14:50.345Z,3.7
2022-12-24T10:16:50.739Z,4.0
2022-12-24T10:18:49.977Z,3.6
2022-12-24T10:20:50.569Z,3.6
2022-12-24T10:22:50.213Z,3.9
2022-12-24T10:24:51.119Z,4.2
2022-12-24T10:26:50.035Z,4.1
2022-12-24T10:28:49.817Z,4.3
2022-12-24T10:30:50.741Z,4.3
2022-12-24T10:32:50.701Z,4.1
2022-12-24T10:34:49.877Z,3.9
2022-12-24T10:36:49.887Z,3.9
2022-12-24T10:38:50.501Z,3.9
2022-12-24T10:40:50.264Z,4.0
2022-12-24T10:42:52.063Z,3.7
2022-12-24T10:44:49.805Z,3.7
2022-12-24T10:46:49.963Z,3.9
2022-12-24T10:48:51.272Z,4.3
2022-12-24T10:50:49.810Z,4.5
2022-12-24T10:52:50.609Z,4.2
2022-12-24T10:54:50.198Z,4.1
2022-12-24T10:56:50.225Z,4.0
2022-12-24T10:58:49.878Z,4.0
2022-12-24T11:00:50.662Z,4.0
2022-12-24T11:02:50.716Z,3.9
2022-12-24T11:04:50.167Z,3.8
2022-12-24T11:06:50.084Z,3.8
2022-12-24T11:08:49.717Z,3.8
2022-12-24T11:10:50.520Z,4.1
2022-12-24T11:13:27.543Z,4.0
2022-12-24T11:14:50.555Z,3.7
2022-12-24T11:16:49.783Z,3.7
2022-12-24T11:18:52.478Z,3.7
2022-12-24T11:20:50.214Z,3.9
2022-12-24T11:22:49.835Z,3.8
2022-12-24T11:24:50.739Z,4.2
2022-12-24T11:26:50.666Z,4.0
2022-12-24T11:28:50.310Z,4.0
2022-12-24T11:30:49.975Z,4.0
2022-12-24T11:32:49.891Z,3.8
2022-12-24T11:34:50.125Z,3.5
2022-12-24T11:36:50.187Z,3.5
2022-12-24T11:38:49.934Z,3.6
2022-12-24T11:40:49.810Z,3.5
2022-12-24T11:42:50.567Z,4.6
2022-12-24T11:44:50.173Z,3.5
2022-12-24T11:46:50.065Z,3.5
2022-12-24T11:48:50.000Z,3.5
2022-12-24T11:50:50.696Z,3.7
2022-12-24T11:52:50.423Z,3.7
2022-12-24T11:54:50.100Z,4.0
2022-12-24T11:56:50.081Z,4.0
2022-12-24T11:58:49.717Z,3.9
2022-12-24T12:00:50.300Z,3.8
2022-12-24T12:02:50.127Z,3.6
2022-12-24T12:04:50.529Z,4.2
2022-12-24T12:06:50.343Z,4.2
2022-12-24T12:08:49.957Z,4.2
2022-12-24T12:10:49.791Z,3.8
2022-12-24T12:12:50.384Z,3.6
2022-12-24T12:14:50.179Z,4.1
2022-12-24T12:16:50.435Z,4.1
2022-12-24T12:18:50.035Z,3.7
2022-12-24T12:20:50.696Z,3.8
2022-12-24T12:22:50.486Z,3.5
2022-12-24T12:24:50.404Z,3.5
2022-12-24T12:26:50.497Z,3.5
2022-12-24T12:28:50.314Z,4.5
2022-12-24T12:30:50.104Z,3.8
2022-12-24T12:32:50.036Z,3.8
2022-12-24T12:34:49.804Z,3.8
2022-12-24T12:36:49.959Z,3.8
2022-12-24T12:38:49.779Z,3.7
2022-12-24T12:40:50.386Z,3.8
2022-12-24T12:42:49.988Z,3.9
2022-12-24T12:44:50.647Z,4.1
2022-12-24T12:46:50.750Z,4.1
2022-12-24T12:48:50.065Z,4.0
2022-12-24T12:50:50.048Z,4.1
2022-12-24T12:52:49.898Z,4.1
2022-12-24T12:54:49.681Z,4.1
2022-12-24T12:56:49.714Z,3.9
2022-12-24T12:58:50.316Z,4.0
2022-12-24T13:00:50.007Z,3.7
2022-12-24T13:02:50.227Z,3.6
2022-12-24T13:04:49.972Z,3.6
2022-12-24T13:06:49.776Z,4.0
2022-12-24T13:08:50.397Z,3.7
2022-12-24T13:10:50.023Z,3.6
2022-12-24T13:12:49.834Z,3.6
2022-12-24T13:14:50.475Z,3.3
2022-12-24T13:16:50.728Z,3.8
2022-12-24T13:18:50.062Z,3.5
2022-12-24T13:20:50.725Z,3.5
2022-12-24T13:22:50.337Z,3.8
2022-12-24T13:24:52.604Z,3.6
2022-12-24T13:26:49.760Z,3.6
2022-12-24T13:28:50.522Z,3.5
2022-12-24T13:30:50.191Z,3.5
2022-12-24T13:32:49.964Z,3.3
2022-12-24T13:34:51.010Z,2.9
2022-12-24T13:36:49.992Z,3.7
2022-12-24T13:38:50.626Z,3.5
2022-12-24T13:40:50.226Z,3.4
2022-12-24T13:42:49.858Z,3.4
2022-12-24T13:44:50.661Z,3.9
2022-12-24T13:46:50.665Z,3.9
2022-12-24T13:48:50.487Z,3.8
2022-12-24T13:50:50.142Z,3.8
2022-12-24T13:52:49.919Z,3.0
2022-12-24T13:54:50.534Z,3.1
2022-12-24T13:56:50.567Z,3.6
2022-12-24T13:58:50.364Z,3.4
2022-12-24T14:00:50.285Z,3.4
2022-12-24T14:02:50.439Z,4.1
2022-12-24T14:04:50.432Z,3.8
2022-12-24T14:06:50.635Z,3.2
2022-12-24T14:08:50.270Z,4.5
2022-12-24T14:10:50.058Z,4.5
2022-12-24T14:12:50.642Z,3.5
2022-12-24T14:14:50.298Z,3.1
2022-12-24T14:16:50.767Z,4.0
2022-12-24T14:18:50.122Z,4.0
2022-12-24T14:20:49.925Z,3.7
2022-12-24T14:22:50.507Z,3.6
2022-12-24T14:24:50.158Z,4.0
2022-12-24T14:26:50.168Z,4.0
2022-12-24T14:28:49.850Z,3.3
2022-12-24T14:30:50.423Z,3.3
2022-12-24T14:32:50.259Z,3.6
2022-12-24T14:34:50.455Z,4.0
2022-12-24T14:36:50.424Z,3.9
2022-12-24T14:38:50.253Z,4.1
2022-12-24T14:40:49.881Z,4.1
2022-12-24T14:42:50.669Z,3.7
2022-12-24T14:44:50.505Z,3.9
2022-12-24T14:46:50.558Z,3.9
2022-12-24T14:48:50.297Z,3.6
2022-12-24T14:50:49.954Z,3.9
2022-12-24T14:53:06.137Z,3.6
2022-12-24T14:54:49.997Z,4.3
2022-12-24T14:56:49.963Z,4.3
2022-12-24T14:58:50.638Z,3.7
2022-12-24T15:00:50.524Z,4.1
2022-12-24T15:02:50.803Z,3.9
2022-12-24T15:04:50.672Z,3.9
2022-12-24T15:06:50.643Z,3.9
2022-12-24T15:08:50.514Z,3.9
2022-12-24T15:10:50.384Z,4.0
2022-12-24T15:12:50.160Z,4.0
2022-12-24T15:14:50.067Z,4.4
2022-12-24T15:16:50.317Z,3.6
2022-12-24T15:18:50.405Z,3.6
2022-12-24T15:20:50.435Z,4.2
2022-12-24T15:22:50.220Z,3.5
2022-12-24T15:24:49.985Z,3.5
2022-12-24T15:26:50.023Z,4.1
2022-12-24T15:28:49.842Z,4.1
2022-12-24T15:30:49.843Z,4.3
2022-12-24T15:32:50.661Z,4.2
2022-12-24T15:34:49.861Z,3.9
2022-12-24T15:36:50.085Z,4.0
2022-12-24T15:38:50.679Z,4.0
2022-12-24T15:40:50.510Z,4.2
2022-12-24T15:42:50.348Z,4.6
2022-12-24T15:44:50.148Z,4.4
2022-12-24T15:46:50.264Z,4.4
2022-12-24T15:48:50.188Z,4.4
2022-12-24T15:50:49.862Z,4.3
2022-12-24T15:53:19.114Z,4.1
2022-12-24T15:54:58.206Z,4.0
2022-12-24T15:56:50.626Z,4.0
2022-12-24T15:58:50.218Z,3.8
2022-12-24T16:00:50.037Z,4.3
2022-12-24T16:02:50.335Z,4.7
2022-12-24T16:04:50.502Z,5.3
2022-12-24T16:06:50.490Z,5.3
2022-12-24T16:08:50.329Z,5.0
2022-12-24T16:10:50.149Z,5.1
2022-12-24T16:12:49.963Z,4.9
2022-12-24T16:14:50.633Z,4.9
2022-12-24T16:16:50.633Z,4.5
2022-12-24T16:18:50.404Z,4.2
2022-12-24T16:20:49.975Z,5.1
2022-12-24T16:22:50.597Z,4.8
2022-12-24T16:24:50.401Z,4.8
2022-12-24T16:26:50.259Z,4.8
2022-12-24T16:28:50.256Z,5.0
2022-12-24T16:30:50.102Z,5.1
2022-12-24T16:32:50.282Z,5.3
2022-12-24T16:34:50.501Z,5.3
2022-12-24T16:36:50.321Z,5.3
2022-12-24T16:38:49.913Z,4.9
2022-12-24T16:40:49.799Z,5.3
2022-12-24T16:42:50.393Z,5.0
2022-12-24T16:44:50.193Z,5.0
2022-12-24T16:46:50.423Z,5.8
2022-12-24T16:48:50.623Z,5.2
2022-12-24T16:50:50.423Z,5.1
2022-12-24T16:52:50.255Z,5.1
2022-12-24T16:54:50.196Z,5.1
2022-12-24T16:56:50.276Z,5.4
2022-12-24T16:58:50.075Z,4.9
2022-12-24T17:00:50.671Z,4.9
2022-12-24T17:02:50.861Z,4.8
2022-12-24T17:04:49.708Z,4.8
2022-12-24T17:06:49.926Z,5.0
2022-12-24T17:08:49.740Z,4.9
2022-12-24T17:10:50.355Z,5.1
2022-12-24T17:12:50.185Z,5.1
2022-12-24T17:14:49.790Z,5.1
2022-12-24T17:16:49.802Z,5.1
2022-12-24T17:18:50.535Z,5.8
2022-12-24T17:20:50.427Z,5.8
2022-12-24T17:22:50.247Z,5.2
2022-12-24T17:24:50.056Z,5.7
2022-12-24T17:26:50.287Z,6.0
2022-12-24T17:28:50.106Z,5.7
2022-12-24T17:30:49.863Z,5.8
2022-12-24T17:32:49.923Z,5.8
2022-12-24T17:34:50.139Z,5.7
2022-12-24T17:36:49.988Z,5.2
2022-12-24T17:38:49.747Z,5.4
2022-12-24T17:40:50.560Z,5.6
2022-12-24T17:42:50.401Z,5.6
2022-12-24T17:44:50.233Z,5.7
2022-12-24T17:46:50.407Z,5.1
2022-12-24T17:48:50.635Z,5.4
2022-12-24T17:50:50.552Z,5.4
2022-12-24T17:52:50.667Z,5.2
2022-12-24T17:54:50.510Z,5.7
2022-12-24T17:56:49.924Z,5.1
2022-12-24T17:58:50.583Z,5.1
2022-12-24T18:00:50.499Z,5.6
2022-12-24T18:02:50.494Z,5.6
2022-12-24T18:04:50.166Z,5.2
2022-12-24T18:06:50.821Z,5.3
2022-12-24T18:08:50.195Z,5.0
2022-12-24T18:10:50.094Z,5.0
2022-12-24T18:12:50.112Z,5.5
2022-12-24T18:14:50.056Z,5.4
2022-12-24T18:16:50.331Z,5.0
2022-12-24T18:18:49.859Z,5.5
2022-12-24T18:20:50.685Z,5.5
2022-12-24T18:22:50.599Z,5.5
2022-12-24T18:24:50.484Z,5.3
2022-12-24T18:26:50.527Z,4.8
2022-12-24T18:28:50.323Z,5.7
2022-12-24T18:30:49.950Z,5.7
2022-12-24T18:32:49.748Z,6.0
2022-12-24T18:34:50.188Z,5.4
2022-12-24T18:36:55.835Z,5.6
2022-12-24T18:38:50.643Z,5.6
2022-12-24T18:40:50.616Z,6.2
2022-12-24T18:42:50.215Z,6.0
2022-12-24T18:44:50.067Z,5.9
2022-12-24T18:46:50.132Z,5.9
2022-12-24T18:48:50.110Z,5.9
2022-12-24T18:50:49.717Z,6.2
2022-12-24T18:52:49.687Z,5.9
2022-12-24T18:54:50.298Z,5.9
2022-12-24T18:56:50.530Z,5.9
2022-12-24T18:58:50.349Z,6.5
2022-12-24T19:00:50.505Z,6.5
2022-12-24T19:02:50.757Z,5.6
2022-12-24T19:04:50.597Z,5.6
2022-12-24T19:06:53.768Z,5.6
2022-12-24T19:09:01.072Z,5.5
2022-12-24T19:10:50.437Z,5.5
2022-12-24T19:12:50.021Z,6.1
2022-12-24T19:14:50.666Z,5.0
2022-12-24T19:16:50.025Z,5.3
2022-12-24T19:18:49.911Z,5.3
2022-12-24T19:20:49.927Z,5.3
2022-12-24T19:22:49.804Z,5.7
2022-12-24T19:24:49.732Z,5.1
2022-12-24T19:26:50.605Z,5.1
2022-12-24T19:28:50.443Z,5.1
2022-12-24T19:30:50.194Z,5.1
2022-12-24T19:32:49.963Z,5.1
2022-12-24T19:34:50.215Z,5.2
2022-12-24T19:36:50.415Z,5.2
2022-12-24T19:38:50.387Z,5.5
2022-12-24T19:40:50.241Z,5.4
2022-12-24T19:42:49.981Z,5.3
2022-12-24T19:44:50.681Z,5.7
2022-12-24T19:46:49.680Z,5.7
2022-12-24T19:48:50.303Z,6.4
2022-12-24T19:50:49.926Z,6.6
2022-12-24T19:52:50.838Z,6.3
2022-12-24T19:54:50.577Z,6.2
2022-12-24T19:56:49.761Z,6.2
2022-12-24T19:58:50.385Z,6.6
2022-12-24T20:00:50.090Z,6.5
2022-12-24T20:02:50.268Z,6.3
2022-12-24T20:04:50.217Z,6.5
2022-12-24T20:07:00.341Z,6.5
2022-12-24T20:08:50.446Z,6.6
2022-12-24T20:10:50.051Z,6.9
2022-12-24T20:12:49.885Z,6.4
2022-12-24T20:14:50.530Z,6.4
2022-12-24T20:16:50.651Z,6.3
2022-12-24T20:18:50.534Z,6.2
2022-12-24T20:20:50.152Z,6.5
2022-12-24T20:22:49.939Z,6.1
2022-12-24T20:24:50.633Z,6.1
2022-12-24T20:26:49.806Z,6.1
2022-12-24T20:28:50.434Z,5.9
2022-12-24T20:30:50.259Z,6.6
2022-12-24T20:32:50.038Z,6.1
2022-12-24T20:34:50.560Z,6.1
2022-12-24T20:36:50.436Z,6.1
2022-12-24T20:38:50.055Z,5.2
2022-12-24T20:40:49.886Z,6.0
2022-12-24T20:42:49.719Z,5.4
2022-12-24T20:44:50.533Z,5.4
2022-12-24T20:46:49.738Z,5.5
2022-12-24T20:48:50.324Z,5.6
2022-12-24T20:50:51.711Z,6.1
2022-12-24T20:52:50.361Z,6.1
2022-12-24T20:54:50.542Z,5.6
2022-12-24T20:56:59.088Z,6.6
2022-12-24T20:58:49.835Z,5.6
2022-12-24T21:00:50.702Z,5.6
2022-12-24T21:02:50.881Z,5.5
2022-12-24T21:04:51.264Z,5.5
2022-12-24T21:06:50.265Z,5.6
2022-12-24T21:08:50.143Z,5.7
2022-12-24T21:10:49.886Z,5.7
2022-12-24T21:12:49.713Z,5.7
2022-12-24T21:14:50.521Z,5.9
2022-12-24T21:16:50.004Z,6.0
2022-12-24T21:18:50.189Z,6.2
2022-12-24T21:20:49.957Z,6.2
2022-12-24T21:22:57.283Z,6.3
2022-12-24T21:24:50.660Z,6.3
2022-12-24T21:26:50.494Z,6.2
2022-12-24T21:28:50.259Z,6.2
2022-12-24T21:30:50.351Z,6.3
2022-12-24T21:32:50.477Z,6.3
2022-12-24T21:34:49.671Z,5.9
2022-12-24T21:36:50.731Z,6.6
2022-12-24T21:38:50.544Z,6.8
2022-12-24T21:40:50.344Z,6.8
2022-12-24T21:42:50.144Z,6.8
2022-12-24T21:44:50.170Z,6.7
2022-12-24T21:46:50.158Z,6.9
2022-12-24T21:48:49.971Z,7.6
2022-12-24T21:50:50.582Z,7.2
2022-12-24T21:52:50.379Z,7.2
2022-12-24T21:54:50.015Z,6.9
2022-12-24T21:56:50.239Z,6.9
2022-12-24T21:58:49.870Z,7.1
2022-12-24T22:00:50.654Z,7.1
2022-12-24T22:02:51.704Z,7.1
2022-12-24T22:04:49.939Z,6.4
2022-12-24T22:06:50.106Z,6.9
2022-12-24T22:08:49.718Z,6.9
2022-12-24T22:10:50.365Z,6.9
2022-12-24T22:12:50.163Z,7.2
2022-12-24T22:14:49.774Z,6.5
2022-12-24T22:16:49.936Z,7.0
2022-12-24T22:18:49.993Z,6.8
2022-12-24T22:20:50.594Z,6.8
2022-12-24T22:22:50.203Z,6.1
2022-12-24T22:24:49.844Z,6.5
2022-12-24T22:26:49.869Z,6.2
2022-12-24T22:28:50.451Z,6.2
2022-12-24T22:30:50.142Z,6.2
2022-12-24T22:32:50.108Z,6.3
2022-12-24T22:34:50.148Z,6.4
2022-12-24T22:36:50.357Z,6.4
2022-12-24T22:38:50.166Z,6.0
2022-12-24T22:40:49.957Z,6.0
2022-12-24T22:42:49.770Z,5.9
2022-12-24T22:44:50.602Z,6.6
2022-12-24T22:46:50.581Z,6.2
2022-12-24T22:48:50.420Z,6.2
2022-12-24T22:50:50.038Z,6.2
2022-12-24T22:52:50.624Z,6.4
2022-12-24T22:54:50.218Z,6.5
2022-12-24T22:56:50.273Z,6.7
2022-12-24T22:58:49.870Z,6.7
2022-12-24T23:00:50.489Z,7.8
2022-12-24T23:02:50.348Z,6.7
2022-12-24T23:04:50.150Z,6.9
2022-12-24T23:06:50.166Z,6.6
2022-12-24T23:08:49.961Z,6.6
2022-12-24T23:10:50.602Z,6.7
2022-12-24T23:12:50.388Z,7.5
2022-12-24T23:14:50.017Z,6.6
2022-12-24T23:16:49.995Z,6.0
2022-12-24T23:18:50.607Z,6.0
2022-12-24T23:20:50.229Z,6.8
2022-12-24T23:22:50.057Z,6.8
2022-12-24T23:24:50.665Z,6.8
2022-12-24T23:26:50.694Z,6.4
2022-12-24T23:28:50.500Z,6.4
2022-12-24T23:30:50.209Z,6.8
2022-12-24T23:32:50.347Z,7.0
2022-12-24T23:34:50.554Z,7.0
2022-12-24T23:36:50.590Z,7.3
2022-12-24T23:38:50.372Z,6.7
2022-12-24T23:40:50.196Z,6.7
2022-12-24T23:42:50.003Z,6.8
2022-12-24T23:44:49.819Z,6.9
2022-12-24T23:46:49.916Z,6.9
2022-12-24T23:48:50.038Z,6.8
2022-12-24T23:50:49.863Z,6.5
2022-12-24T23:52:49.867Z,6.7
2022-12-24T23:54:49.740Z,7.5
2022-12-24T23:56:49.676Z,7.5
2022-12-24T23:58:50.508Z,6.5
